createdAt,value
2018-02-15T00:02:11.385Z,-6.00
2018-02-15T00:04:38.931Z,-6.00
2018-02-15T00:07:06.416Z,-6.10
2018-02-15T00:09:33.892Z,-6.00
2018-02-15T00:12:01.374Z,-6.00
2018-02-15T00:14:28.841Z,-6.00
2018-02-15T00:16:56.344Z,-6.10
2018-02-15T00:19:23.817Z,-6.10
2018-02-15T00:21:51.405Z,-6.20
2018-02-15T00:24:18.877Z,-6.20
2018-02-15T00:26:46.346Z,-6.20
2018-02-15T00:29:13.847Z,-6.20
2018-02-15T00:31:41.332Z,-6.20
2018-02-15T00:34:08.810Z,-6.20
2018-02-15T00:36:36.277Z,-6.30
2018-02-15T00:39:03.754Z,-6.30
2018-02-15T00:41:31.231Z,-6.40
2018-02-15T00:43:58.741Z,-6.40
2018-02-15T00:46:26.213Z,-6.50
2018-02-15T00:48:54.234Z,-6.50
2018-02-15T00:51:21.793Z,-6.50
2018-02-15T00:53:49.373Z,-6.50
2018-02-15T00:56:16.841Z,-6.50
2018-02-15T00:58:44.340Z,-6.40
2018-02-15T01:01:11.814Z,-6.40
2018-02-15T01:03:39.300Z,-6.40
2018-02-15T01:06:06.777Z,-6.40
2018-02-15T01:08:34.269Z,-6.40
2018-02-15T01:11:01.737Z,-6.30
2018-02-15T01:13:29.238Z,-6.30
2018-02-15T01:15:56.710Z,-6.30
2018-02-15T01:18:25.001Z,-6.30
2018-02-15T01:20:52.466Z,-6.30
2018-02-15T01:23:19.947Z,-6.30
2018-02-15T01:25:47.461Z,-6.30
2018-02-15T01:28:15.041Z,-6.20
2018-02-15T01:30:43.344Z,-6.30
2018-02-15T01:33:10.823Z,-6.30
2018-02-15T01:35:38.337Z,-6.30
2018-02-15T01:38:05.805Z,-6.40
2018-02-15T01:40:33.373Z,-6.30
2018-02-15T01:43:00.846Z,-6.40
2018-02-15T01:45:28.321Z,-6.50
2018-02-15T01:47:55.820Z,-6.50
2018-02-15T01:50:24.817Z,-6.40
2018-02-15T01:52:52.321Z,-6.40
2018-02-15T01:55:19.792Z,-6.30
2018-02-15T01:57:47.277Z,-6.30
2018-02-15T02:00:14.763Z,-6.20
2018-02-15T02:02:42.241Z,-6.20
2018-02-15T02:05:09.713Z,-6.20
2018-02-15T02:07:37.183Z,-6.10
2018-02-15T02:10:04.649Z,-6.10
2018-02-15T02:12:32.117Z,-6.00
2018-02-15T02:15:00.383Z,-6.00
2018-02-15T02:17:27.853Z,-6.00
2018-02-15T02:19:55.322Z,-6.00
2018-02-15T02:22:22.862Z,-6.00
2018-02-15T02:24:51.105Z,-5.90
2018-02-15T02:27:18.569Z,-5.90
2018-02-15T02:29:46.042Z,-5.90
2018-02-15T02:32:13.565Z,-6.00
2018-02-15T02:34:41.035Z,-6.00
2018-02-15T02:37:08.511Z,-6.00
2018-02-15T02:39:35.985Z,-6.00
2018-02-15T02:42:03.481Z,-5.90
2018-02-15T02:44:30.945Z,-5.90
2018-02-15T02:46:58.418Z,-5.80
2018-02-15T02:49:25.881Z,-5.70
2018-02-15T02:51:53.715Z,-5.70
2018-02-15T02:54:21.207Z,-5.70
2018-02-15T02:56:48.678Z,-5.50
2018-02-15T02:59:16.161Z,-5.40
2018-02-15T03:01:43.637Z,-5.40
2018-02-15T03:04:11.102Z,-5.30
2018-02-15T03:06:38.609Z,-5.30
2018-02-15T03:09:06.083Z,-5.20
2018-02-15T03:11:34.313Z,-5.00
2018-02-15T03:14:01.869Z,-5.00
2018-02-15T03:16:29.462Z,-5.00
2018-02-15T03:18:56.941Z,-5.00
2018-02-15T03:21:24.725Z,-5.00
2018-02-15T03:23:52.204Z,-4.90
2018-02-15T03:26:19.682Z,-4.90
2018-02-15T03:28:47.167Z,-4.80
2018-02-15T03:31:14.630Z,-4.80
2018-02-15T03:33:42.099Z,-4.80
2018-02-15T03:36:09.609Z,-4.80
2018-02-15T03:38:37.093Z,-4.70
2018-02-15T03:41:04.553Z,-4.70
2018-02-15T03:43:32.023Z,-4.70
2018-02-15T03:45:59.542Z,-4.70
2018-02-15T03:48:27.010Z,-4.60
2018-02-15T03:50:55.186Z,-4.60
2018-02-15T03:53:22.878Z,-4.50
2018-02-15T03:55:50.343Z,-4.50
2018-02-15T03:58:17.872Z,-4.40
2018-02-15T04:00:45.345Z,-4.30
2018-02-15T04:03:12.837Z,-4.30
2018-02-15T04:05:40.303Z,-4.20
2018-02-15T04:08:07.804Z,-4.20
2018-02-15T04:10:36.106Z,-4.10
2018-02-15T04:13:03.561Z,-4.10
2018-02-15T04:15:31.067Z,-4.10
2018-02-15T04:17:58.533Z,-4.10
2018-02-15T04:20:25.999Z,-4.10
2018-02-15T04:22:53.882Z,-4.10
2018-02-15T04:25:21.341Z,-4.10
2018-02-15T04:27:49.598Z,-4.10
2018-02-15T04:30:17.069Z,-4.10
2018-02-15T04:32:44.561Z,-4.10
2018-02-15T04:35:12.074Z,-4.10
2018-02-15T04:37:39.538Z,-4.10
2018-02-15T04:40:07.007Z,-4.10
2018-02-15T04:42:34.471Z,-4.00
2018-02-15T04:45:01.953Z,-4.00
2018-02-15T04:47:29.453Z,-3.90
2018-02-15T04:49:56.954Z,-3.90
2018-02-15T04:52:25.010Z,-3.80
2018-02-15T04:54:52.515Z,-3.70
2018-02-15T04:57:19.980Z,-3.60
2018-02-15T04:59:47.473Z,-3.50
2018-02-15T05:02:14.958Z,-3.50
2018-02-15T05:04:42.513Z,-3.40
2018-02-15T05:07:10.068Z,-3.30
2018-02-15T05:09:37.555Z,-3.30
2018-02-15T05:12:05.787Z,-3.20
2018-02-15T05:14:33.251Z,-3.20
2018-02-15T05:17:00.713Z,-3.20
2018-02-15T05:19:28.948Z,-3.10
2018-02-15T05:21:56.463Z,-3.10
2018-02-15T05:24:23.933Z,-3.00
2018-02-15T05:26:51.512Z,-3.00
2018-02-15T05:29:18.976Z,-3.00
2018-02-15T05:31:46.441Z,-2.90
2018-02-15T05:34:13.909Z,-2.90
2018-02-15T05:36:42.149Z,-2.70
2018-02-15T05:39:09.622Z,-2.70
2018-02-15T05:41:37.103Z,-2.70
2018-02-15T05:44:04.565Z,-2.70
2018-02-15T05:46:32.028Z,-2.60
2018-02-15T05:49:00.277Z,-2.40
2018-02-15T05:51:27.784Z,-2.40
2018-02-15T05:53:55.269Z,-2.40
2018-02-15T05:56:22.877Z,-2.30
2018-02-15T05:58:50.359Z,-2.40
2018-02-15T06:01:18.606Z,-2.30
2018-02-15T06:03:46.086Z,-2.30
2018-02-15T06:06:13.573Z,-2.20
2018-02-15T06:08:41.057Z,-2.20
2018-02-15T06:11:08.537Z,-2.20
2018-02-15T06:13:36.171Z,-2.30
2018-02-15T06:16:04.403Z,-2.30
2018-02-15T06:18:31.912Z,-2.30
2018-02-15T06:20:59.389Z,-2.30
2018-02-15T06:23:26.865Z,-2.30
2018-02-15T06:25:54.665Z,-2.20
2018-02-15T06:28:22.185Z,-2.20
2018-02-15T06:30:50.442Z,-2.20
2018-02-15T06:33:17.910Z,-2.20
2018-02-15T06:35:45.405Z,-2.20
2018-02-15T06:38:12.877Z,-2.20
2018-02-15T06:40:40.345Z,-2.20
2018-02-15T06:43:07.842Z,-2.20
2018-02-15T06:45:35.325Z,-2.20
2018-02-15T06:48:02.791Z,-2.20
2018-02-15T06:50:30.259Z,-2.20
2018-02-15T06:52:57.726Z,-2.10
2018-02-15T06:55:25.967Z,-1.90
2018-02-15T06:57:54.043Z,-1.90
2018-02-15T07:00:21.543Z,-1.80
2018-02-15T07:02:49.014Z,-1.80
2018-02-15T07:05:16.509Z,-1.80
2018-02-15T07:07:44.107Z,-1.70
2018-02-15T07:10:12.390Z,-1.60
2018-02-15T07:12:39.973Z,-1.70
2018-02-15T07:15:07.853Z,-1.60
2018-02-15T07:17:35.351Z,-1.50
2018-02-15T07:20:02.835Z,-1.50
2018-02-15T07:22:30.317Z,-1.40
2018-02-15T07:24:57.817Z,-1.30
2018-02-15T07:27:25.290Z,-1.30
2018-02-15T07:29:52.973Z,-1.30
2018-02-15T07:32:20.617Z,-1.20
2018-02-15T07:34:48.129Z,-1.20
2018-02-15T07:37:15.693Z,-1.10
2018-02-15T07:39:43.975Z,-1.10
2018-02-15T07:42:11.528Z,-1.10
2018-02-15T07:44:38.994Z,-1.00
2018-02-15T07:47:06.691Z,-0.90
2018-02-15T07:49:34.150Z,-0.90
2018-02-15T07:52:01.761Z,-0.90
2018-02-15T07:54:29.240Z,-0.80
2018-02-15T07:56:56.702Z,-0.80
2018-02-15T07:59:25.000Z,-0.70
2018-02-15T08:01:52.509Z,-0.70
2018-02-15T08:04:19.973Z,-0.70
2018-02-15T08:06:47.444Z,-0.60
2018-02-15T08:09:14.945Z,-0.50
2018-02-15T08:11:42.433Z,-0.60
2018-02-15T08:14:09.928Z,-0.60
2018-02-15T08:16:37.505Z,-0.60
2018-02-15T08:19:05.010Z,-0.50
2018-02-15T08:21:32.487Z,-0.60
2018-02-15T08:23:59.954Z,-0.60
2018-02-15T08:26:27.409Z,-0.50
2018-02-15T08:28:54.939Z,-0.40
2018-02-15T08:31:22.398Z,-0.30
2018-02-15T08:33:49.897Z,-0.30
2018-02-15T08:36:17.356Z,-0.20
2018-02-15T08:38:44.857Z,-0.20
2018-02-15T08:41:12.461Z,-0.10
2018-02-15T08:43:39.933Z,-0.10
2018-02-15T08:46:07.406Z,-0.10
2018-02-15T08:48:34.858Z,0.00
2018-02-15T08:51:02.317Z,0.10
2018-02-15T08:53:29.774Z,0.20
2018-02-15T08:55:57.228Z,0.10
2018-02-15T08:58:25.382Z,0.20
2018-02-15T09:00:54.190Z,0.30
2018-02-15T09:03:22.426Z,0.30
2018-02-15T09:05:49.930Z,0.20
2018-02-15T09:08:17.381Z,0.30
2018-02-15T09:10:44.894Z,0.20
2018-02-15T09:13:12.379Z,0.40
2018-02-15T09:15:39.858Z,0.40
2018-02-15T09:18:07.310Z,0.40
2018-02-15T09:20:34.777Z,0.50
2018-02-15T09:23:03.081Z,0.50
2018-02-15T09:25:30.598Z,0.40
2018-02-15T09:27:58.057Z,0.50
2018-02-15T09:30:25.526Z,0.50
2018-02-15T09:32:52.996Z,0.50
2018-02-15T09:35:21.222Z,0.50
2018-02-15T09:37:48.723Z,0.50
2018-02-15T09:40:16.205Z,0.50
2018-02-15T09:42:43.688Z,0.50
2018-02-15T09:45:11.198Z,0.50
2018-02-15T09:47:38.646Z,0.50
2018-02-15T09:50:06.111Z,0.60
2018-02-15T09:52:33.570Z,0.60
2018-02-15T09:55:01.811Z,0.70
2018-02-15T09:57:29.292Z,0.70
2018-02-15T09:59:56.763Z,0.70
2018-02-15T10:02:25.065Z,0.80
2018-02-15T10:04:52.517Z,0.80
2018-02-15T10:07:19.978Z,0.70
2018-02-15T10:09:48.203Z,0.70
2018-02-15T10:12:15.716Z,0.70
2018-02-15T10:14:43.202Z,0.80
2018-02-15T10:17:10.679Z,0.80
2018-02-15T10:19:38.133Z,0.80
2018-02-15T10:22:05.645Z,0.80
2018-02-15T10:24:33.122Z,0.80
2018-02-15T10:27:00.608Z,0.80
2018-02-15T10:29:28.095Z,0.80
2018-02-15T10:31:55.575Z,0.80
2018-02-15T10:34:23.415Z,0.80
2018-02-15T10:36:51.662Z,0.80
2018-02-15T10:39:19.134Z,0.80
2018-02-15T10:41:46.650Z,0.80
2018-02-15T10:44:14.112Z,0.90
2018-02-15T10:46:41.570Z,0.90
2018-02-15T10:49:09.079Z,0.90
2018-02-15T10:51:36.545Z,0.90
2018-02-15T10:54:04.002Z,0.90
2018-02-15T10:56:32.243Z,1.00
2018-02-15T10:58:59.704Z,1.00
2018-02-15T11:01:32.846Z,1.00
2018-02-15T11:04:04.289Z,1.10
2018-02-15T11:06:31.755Z,1.10
2018-02-15T11:08:59.995Z,1.20
2018-02-15T11:11:27.478Z,1.20
2018-02-15T11:13:54.971Z,1.20
2018-02-15T11:16:22.545Z,1.20
2018-02-15T11:18:51.525Z,1.30
2018-02-15T11:21:18.989Z,1.30
2018-02-15T11:23:46.522Z,1.40
2018-02-15T11:26:13.978Z,1.30
2018-02-15T11:28:41.485Z,1.40
2018-02-15T11:31:08.946Z,1.50
2018-02-15T11:33:36.414Z,1.50
2018-02-15T11:36:03.895Z,1.50
2018-02-15T11:38:31.353Z,1.50
2018-02-15T11:40:59.609Z,1.50
2018-02-15T11:43:27.097Z,1.50
2018-02-15T11:45:55.279Z,1.60
2018-02-15T11:48:22.922Z,1.60
2018-02-15T11:50:51.182Z,1.60
2018-02-15T11:53:18.645Z,1.60
2018-02-15T11:55:46.106Z,1.70
2018-02-15T11:58:13.577Z,1.70
2018-02-15T12:00:41.034Z,1.80
2018-02-15T12:03:09.299Z,1.90
2018-02-15T12:05:36.758Z,1.90
2018-02-15T12:08:04.253Z,1.90
2018-02-15T12:10:31.719Z,2.00
2018-02-15T12:12:59.232Z,2.10
2018-02-15T12:15:26.706Z,2.10
2018-02-15T12:17:54.877Z,2.10
2018-02-15T12:20:22.383Z,2.10
2018-02-15T12:22:49.866Z,2.10
2018-02-15T12:25:17.326Z,2.10
2018-02-15T12:27:44.825Z,2.20
2018-02-15T12:30:12.286Z,2.20
2018-02-15T12:32:39.742Z,2.20
2018-02-15T12:35:07.991Z,2.20
2018-02-15T12:37:35.469Z,2.20
2018-02-15T12:40:02.953Z,2.20
2018-02-15T12:42:30.407Z,2.10
2018-02-15T12:44:58.664Z,2.20
2018-02-15T12:47:26.144Z,2.20
2018-02-15T12:49:54.071Z,2.30
2018-02-15T12:52:22.289Z,2.10
2018-02-15T12:54:49.806Z,2.10
2018-02-15T12:57:17.829Z,2.20
2018-02-15T12:59:45.385Z,2.10
2018-02-15T13:02:12.849Z,2.00
2018-02-15T13:04:40.352Z,1.90
2018-02-15T13:07:07.829Z,2.00
2018-02-15T13:09:35.323Z,1.90
2018-02-15T13:12:02.791Z,1.80
2018-02-15T13:14:30.278Z,1.90
2018-02-15T13:16:57.766Z,1.80
2018-02-15T13:19:37.222Z,1.60
2018-02-15T13:22:04.677Z,1.60
2018-02-15T13:24:32.185Z,1.50
2018-02-15T13:26:59.641Z,1.50
2018-02-15T13:29:27.154Z,1.40
2018-02-15T13:31:55.579Z,1.50
2018-02-15T13:34:23.394Z,1.50
2018-02-15T13:36:51.619Z,1.30
2018-02-15T13:39:19.122Z,1.30
2018-02-15T13:41:46.600Z,1.20
2018-02-15T13:44:14.088Z,1.20
2018-02-15T13:46:41.555Z,1.10
2018-02-15T13:49:09.058Z,1.10
2018-02-15T13:51:36.539Z,1.00
2018-02-15T13:54:04.015Z,0.90
2018-02-15T13:56:31.502Z,0.80
2018-02-15T13:58:58.982Z,0.60
2018-02-15T14:01:26.476Z,0.60
2018-02-15T14:03:54.762Z,0.60
2018-02-15T14:06:22.233Z,0.60
2018-02-15T14:08:49.723Z,0.60
2018-02-15T14:11:17.179Z,0.60
2018-02-15T14:13:44.681Z,0.50
2018-02-15T14:16:12.170Z,0.60
2018-02-15T14:18:39.757Z,0.50
2018-02-15T14:21:07.214Z,0.50
2018-02-15T14:23:34.711Z,0.50
2018-02-15T14:26:02.167Z,0.40
2018-02-15T14:28:29.677Z,0.40
2018-02-15T14:30:57.158Z,0.40
2018-02-15T14:33:25.324Z,0.40
2018-02-15T14:35:53.004Z,0.30
2018-02-15T14:38:20.463Z,0.20
2018-02-15T14:40:48.682Z,0.10
2018-02-15T14:43:16.147Z,0.10
2018-02-15T14:45:44.633Z,0.20
2018-02-15T14:48:13.685Z,0.10
2018-02-15T14:50:41.181Z,0.10
2018-02-15T14:53:08.744Z,0.10
2018-02-15T14:55:36.962Z,0.10
2018-02-15T14:58:04.475Z,0.00
2018-02-15T15:00:32.222Z,0.10
2018-02-15T15:02:59.743Z,0.10
2018-02-15T15:05:27.209Z,0.10
2018-02-15T15:07:54.818Z,0.20
2018-02-15T15:10:22.282Z,0.20
2018-02-15T15:12:49.770Z,0.10
2018-02-15T15:15:17.328Z,0.20
2018-02-15T15:17:44.790Z,0.20
2018-02-15T15:20:13.034Z,0.20
2018-02-15T15:22:40.591Z,0.20
2018-02-15T15:25:08.055Z,0.20
2018-02-15T15:27:35.513Z,0.20
2018-02-15T15:30:02.966Z,0.20
2018-02-15T15:32:30.450Z,0.30
2018-02-15T15:34:57.929Z,0.20
2018-02-15T15:37:25.415Z,0.20
2018-02-15T15:39:52.907Z,0.10
2018-02-15T15:42:20.359Z,0.20
2018-02-15T15:44:47.858Z,0.10
2018-02-15T15:47:15.431Z,0.10
2018-02-15T15:49:42.914Z,0.00
2018-02-15T15:52:10.397Z,0.00
2018-02-15T15:54:37.922Z,0.00
2018-02-15T15:57:06.171Z,0.00
2018-02-15T15:59:33.658Z,-0.10
2018-02-15T16:02:01.151Z,-0.10
2018-02-15T16:04:28.661Z,-0.10
2018-02-15T16:06:56.882Z,-0.10
2018-02-15T16:09:24.405Z,-0.10
2018-02-15T16:11:52.683Z,-0.10
2018-02-15T16:14:20.182Z,-0.10
2018-02-15T16:16:47.646Z,-0.10
2018-02-15T16:19:15.143Z,-0.10
2018-02-15T16:21:42.632Z,-0.20
2018-02-15T16:24:10.115Z,-0.20
2018-02-15T16:26:37.577Z,-0.10
2018-02-15T16:29:05.040Z,-0.10
2018-02-15T16:31:32.555Z,-0.10
2018-02-15T16:34:00.019Z,-0.20
2018-02-15T16:36:27.490Z,-0.10
2018-02-15T16:38:54.955Z,-0.10
2018-02-15T16:41:23.274Z,-0.10
2018-02-15T16:43:51.044Z,-0.20
2018-02-15T16:46:18.571Z,-0.10
2018-02-15T16:48:46.034Z,-0.10
2018-02-15T16:51:13.495Z,-0.10
2018-02-15T16:53:40.964Z,-0.10
2018-02-15T16:56:09.377Z,0.00
2018-02-15T16:58:36.885Z,-0.10
2018-02-15T17:01:04.342Z,-0.10
2018-02-15T17:03:31.820Z,-0.10
2018-02-15T17:06:00.808Z,0.00
2018-02-15T17:08:29.079Z,0.00
2018-02-15T17:10:56.983Z,0.00
2018-02-15T17:13:24.472Z,0.00
2018-02-15T17:15:52.801Z,0.00
2018-02-15T17:18:21.681Z,0.00
2018-02-15T17:20:49.405Z,0.00
2018-02-15T17:23:17.187Z,0.00
2018-02-15T17:25:44.690Z,0.10
2018-02-15T17:28:12.211Z,0.00
2018-02-15T17:30:39.790Z,0.00
2018-02-15T17:33:07.246Z,0.00
2018-02-15T17:35:34.724Z,0.10
2018-02-15T17:38:02.238Z,0.10
2018-02-15T17:40:29.828Z,0.10
2018-02-15T17:42:57.292Z,0.10
2018-02-15T17:45:24.759Z,0.10
2018-02-15T17:47:52.273Z,0.10
2018-02-15T17:50:19.847Z,0.10
2018-02-15T17:52:47.307Z,0.10
2018-02-15T17:55:14.772Z,0.10
2018-02-15T17:57:42.295Z,0.10
2018-02-15T18:00:09.759Z,0.20
2018-02-15T18:02:37.278Z,0.10
2018-02-15T18:05:04.754Z,0.20
2018-02-15T18:07:32.321Z,0.20
2018-02-15T18:09:59.796Z,0.20
2018-02-15T18:12:27.283Z,0.20
2018-02-15T18:14:54.771Z,0.20
2018-02-15T18:17:22.238Z,0.20
2018-02-15T18:19:49.732Z,0.10
2018-02-15T18:22:17.198Z,0.20
2018-02-15T18:24:44.690Z,0.20
2018-02-15T18:27:12.147Z,0.20
2018-02-15T18:29:39.611Z,0.20
2018-02-15T18:32:07.134Z,0.30
2018-02-15T18:34:34.598Z,0.20
2018-02-15T18:37:02.094Z,0.30
2018-02-15T18:39:29.585Z,0.30
2018-02-15T18:41:57.049Z,0.30
2018-02-15T18:44:24.530Z,0.30
2018-02-15T18:46:52.186Z,0.30
2018-02-15T18:49:19.709Z,0.30
2018-02-15T18:51:47.163Z,0.20
2018-02-15T18:54:14.639Z,0.20
2018-02-15T18:56:42.100Z,0.30
2018-02-15T18:59:10.378Z,0.30
2018-02-15T19:01:37.830Z,0.20
2018-02-15T19:04:05.313Z,0.30
2018-02-15T19:06:32.770Z,0.30
2018-02-15T19:09:00.993Z,0.30
2018-02-15T19:11:28.450Z,0.30
2018-02-15T19:13:55.910Z,0.30
2018-02-15T19:16:23.385Z,0.30
2018-02-15T19:18:52.329Z,0.30
2018-02-15T19:21:19.793Z,0.20
2018-02-15T19:23:47.255Z,0.30
2018-02-15T19:26:15.486Z,0.30
2018-02-15T19:28:43.710Z,0.30
2018-02-15T19:31:11.179Z,0.30
2018-02-15T19:33:38.673Z,0.30
2018-02-15T19:36:06.143Z,0.30
2018-02-15T19:38:33.597Z,0.30
2018-02-15T19:41:01.066Z,0.30
2018-02-15T19:43:29.303Z,0.40
2018-02-15T19:45:56.956Z,0.30
2018-02-15T19:48:24.626Z,0.30
2018-02-15T19:50:52.604Z,0.30
2018-02-15T19:53:21.655Z,0.30
2018-02-15T19:55:49.339Z,0.30
2018-02-15T19:58:17.740Z,0.30
2018-02-15T20:00:45.343Z,0.30
2018-02-15T20:03:12.851Z,0.30
2018-02-15T20:05:40.422Z,0.30
2018-02-15T20:08:07.934Z,0.30
2018-02-15T20:10:35.507Z,0.30
2018-02-15T20:13:02.993Z,0.30
2018-02-15T20:15:37.094Z,0.30
2018-02-15T20:18:04.744Z,0.30
2018-02-15T20:20:33.172Z,0.30
2018-02-15T20:23:00.853Z,0.30
2018-02-15T20:25:29.302Z,0.40
2018-02-15T20:28:02.598Z,0.40
2018-02-15T20:30:30.058Z,0.30
2018-02-15T20:32:58.310Z,0.40
2018-02-15T20:35:25.790Z,0.40
2018-02-15T20:37:58.946Z,0.40
2018-02-15T20:40:32.005Z,0.40
2018-02-15T20:42:59.502Z,0.40
2018-02-15T20:45:26.994Z,0.40
2018-02-15T20:47:54.451Z,0.40
2018-02-15T20:50:28.514Z,0.40
2018-02-15T20:53:02.465Z,0.40
2018-02-15T20:55:36.430Z,0.40
2018-02-15T20:58:03.949Z,0.40
2018-02-15T21:00:31.415Z,0.40
2018-02-15T21:02:59.059Z,0.40
2018-02-15T21:05:26.750Z,0.40
2018-02-15T21:07:54.298Z,0.40
2018-02-15T21:10:22.685Z,0.40
2018-02-15T21:12:50.214Z,0.40
2018-02-15T21:15:18.464Z,0.50
2018-02-15T21:17:45.929Z,0.50
2018-02-15T21:20:13.446Z,0.50
2018-02-15T21:22:40.961Z,0.50
2018-02-15T21:25:09.212Z,0.50
2018-02-15T21:27:36.670Z,0.50
2018-02-15T21:30:04.176Z,0.50
2018-02-15T21:32:31.626Z,0.50
2018-02-15T21:34:59.094Z,0.50
2018-02-15T21:37:26.629Z,0.50
2018-02-15T21:39:54.084Z,0.40
2018-02-15T21:42:22.397Z,0.50
2018-02-15T21:44:49.848Z,0.50
2018-02-15T21:47:17.315Z,0.50
2018-02-15T21:49:45.558Z,0.50
2018-02-15T21:52:13.020Z,0.50
2018-02-15T21:54:40.577Z,0.50
2018-02-15T21:57:08.805Z,0.50
2018-02-15T21:59:36.314Z,0.50
2018-02-15T22:02:03.774Z,0.50
2018-02-15T22:04:31.234Z,0.50
2018-02-15T22:06:58.751Z,0.50
2018-02-15T22:09:26.209Z,0.50
2018-02-15T22:11:53.673Z,0.50
2018-02-15T22:14:21.141Z,0.50
2018-02-15T22:16:49.361Z,0.50
2018-02-15T22:19:16.881Z,0.50
2018-02-15T22:21:44.358Z,0.50
2018-02-15T22:24:11.830Z,0.50
2018-02-15T22:26:39.290Z,0.50
2018-02-15T22:29:06.742Z,0.50
2018-02-15T22:31:35.018Z,0.50
2018-02-15T22:34:02.474Z,0.50
2018-02-15T22:36:29.964Z,0.60
2018-02-15T22:38:57.447Z,0.60
2018-02-15T22:41:24.913Z,0.60
2018-02-15T22:43:52.418Z,0.60
2018-02-15T22:46:19.889Z,0.60
2018-02-15T22:48:47.346Z,0.60
2018-02-15T22:51:14.813Z,0.60
2018-02-15T22:53:42.271Z,0.60
2018-02-15T22:56:09.824Z,0.60
2018-02-15T22:58:37.296Z,0.60
2018-02-15T23:01:04.783Z,0.60
2018-02-15T23:03:32.237Z,0.60
2018-02-15T23:05:59.701Z,0.60
2018-02-15T23:08:27.232Z,0.60
2018-02-15T23:10:55.525Z,0.70
2018-02-15T23:13:22.986Z,0.70
2018-02-15T23:15:50.958Z,0.70
2018-02-15T23:18:18.414Z,0.70
2018-02-15T23:20:45.901Z,0.70
2018-02-15T23:23:13.357Z,0.70
2018-02-15T23:25:40.813Z,0.70
2018-02-15T23:28:08.282Z,0.70
2018-02-15T23:30:35.743Z,0.70
2018-02-15T23:33:03.299Z,0.70
2018-02-15T23:35:30.758Z,0.70
2018-02-15T23:37:58.257Z,0.70
2018-02-15T23:40:25.741Z,0.70
2018-02-15T23:42:53.205Z,0.70
2018-02-15T23:47:54.045Z,0.70
2018-02-15T23:50:21.511Z,0.70
2018-02-15T23:52:49.021Z,0.70
2018-02-15T23:55:16.485Z,0.70
2018-02-15T23:57:43.952Z,0.70
